SALOAN 211300Z 27010KT 22KM SCT025CU BKN060SC RMK BKN
FCLOAN 211125Z 2112/2121 36005KT 9999 FEW030 BKN050 BECMG 2112/2114 27010KT PROB30 TEMPO 2112/2115 27015G25KT -SHRA BKN030